Time;durP1;ratioP1;P1;durP2;ratioP2;P2;SDS_P1;SDS_P2;PMS_P1;PMS_P2;Temp;Humidity;BMP_temperature;BMP_pressure;BME280_temperature;BME280_humidity;BME280_pressure;Samples;Min_cycle;Max_cycle;Signal;HPM_P1;HPM_P2
2024/04/24 00:01:25;;;;;;;4.72;1.83;;;;;;;;;;5416317;26;20012;-61
2024/04/24 00:03:51;;;;;;;5.80;1.75;;;;;;;;;;5416013;26;20080;-60
2024/04/24 00:06:16;;;;;;;4.55;2.00;;;;;;;;;;5433473;26;19995;-61
2024/04/24 00:08:42;;;;;;;5.35;2.47;;;;;;;;;;5441503;26;20011;-62
2024/04/24 00:11:07;;;;;;;4.38;1.67;;;;;;;;;;5442638;26;20006;-62
2024/04/24 00:13:33;;;;;;;6.15;1.88;;;;;;;;;;5442536;26;20068;-62
2024/04/24 00:15:58;;;;;;;5.65;1.70;;;;;;;;;;5443845;26;20710;-62
2024/04/24 00:18:24;;;;;;;5.28;1.77;;;;;;;;;;5439915;26;20411;-62
2024/04/24 00:20:54;;;;;;;6.07;1.90;;;;;;;;;;5416155;26;20010;-62
2024/04/24 00:23:19;;;;;;;4.28;1.67;;;;;;;;;;5421441;26;20013;-62
2024/04/24 00:25:45;;;;;;;5.05;1.83;;;;;;;;;;5435421;26;20007;-62
2024/04/24 00:28:10;;;;;;;5.43;2.13;;;;;;;;;;5449023;26;20003;-61
2024/04/24 00:30:36;;;;;;;5.38;1.70;;;;;;;;;;5440932;26;20009;-62
2024/04/24 00:33:01;;;;;;;9.38;2.30;;;;;;;;;;5450531;26;20003;-61
2024/04/24 00:35:27;;;;;;;5.03;2.00;;;;;;;;;;5451571;26;20007;-62
2024/04/24 00:37:52;;;;;;;5.43;2.05;;;;;;;;;;5446415;26;20017;-61
2024/04/24 00:40:18;;;;;;;6.22;2.33;;;;;;;;;;5432683;26;20067;-63
2024/04/24 00:42:43;;;;;;;5.78;2.20;;;;;;;;;;5449667;26;20003;-61
2024/04/24 00:45:09;;;;;;;5.80;2.20;;;;;;;;;;5449807;26;20039;-61
2024/04/24 00:47:35;;;;;;;5.60;1.98;;;;;;;;;;5415203;26;20008;-62
2024/04/24 00:50:01;;;;;;;6.07;2.10;;;;;;;;;;5415613;26;19999;-61
2024/04/24 00:52:26;;;;;;;5.65;2.20;;;;;;;;;;5432757;26;19999;-63
2024/04/24 00:54:52;;;;;;;5.88;1.77;;;;;;;;;;5445228;26;20335;-62
2024/04/24 00:57:18;;;;;;;5.50;1.98;;;;;;;;;;5453137;26;19999;-61
2024/04/24 00:59:43;;;;;;;5.65;1.98;;;;;;;;;;5451974;26;20009;-63
2024/04/24 01:02:09;;;;;;;6.85;2.10;;;;;;;;;;5432682;26;19994;-61
2024/04/24 01:04:34;;;;;;;5.85;2.15;;;;;;;;;;5436833;26;20007;-62
2024/04/24 01:07:00;;;;;;;7.20;2.45;;;;;;;;;;5425236;26;20005;-63
2024/04/24 01:09:25;;;;;;;4.70;2.08;;;;;;;;;;5431659;26;20015;-62
2024/04/24 01:11:51;;;;;;;4.78;2.10;;;;;;;;;;5432322;26;20012;-62
2024/04/24 01:14:16;;;;;;;6.85;2.20;;;;;;;;;;5426145;26;20006;-62
2024/04/24 01:16:42;;;;;;;7.30;2.30;;;;;;;;;;5449696;26;20068;-61
2024/04/24 01:19:27;;;;;;;5.65;2.20;;;;;;;;;;5422431;26;20015;-61
2024/04/24 01:21:52;;;;;;;;;;;;;;;;;;5422192;26;20011;-60
2024/04/24 01:24:21;;;;;;;5.27;2.17;;;;;;;;;;5450017;26;19940;-63
2024/04/24 01:26:47;;;;;;;6.28;2.50;;;;;;;;;;5452293;26;20333;-62
2024/04/24 01:29:13;;;;;;;5.32;2.22;;;;;;;;;;5415763;26;19996;-62
2024/04/24 01:31:39;;;;;;;5.97;2.05;;;;;;;;;;5441688;26;20146;-61
2024/04/24 01:34:05;;;;;;;6.07;2.17;;;;;;;;;;5439799;26;20381;-61
2024/04/24 01:36:30;;;;;;;6.85;2.45;;;;;;;;;;5451809;26;20014;-61
2024/04/24 01:38:56;;;;;;;4.97;2.38;;;;;;;;;;5441892;26;20068;-60
2024/04/24 01:41:21;;;;;;;5.00;2.10;;;;;;;;;;5438017;26;20004;-62
2024/04/24 01:43:47;;;;;;;4.65;2.15;;;;;;;;;;5430514;26;20067;-61
2024/04/24 01:46:12;;;;;;;7.38;2.50;;;;;;;;;;5427263;26;20067;-61
2024/04/24 01:48:38;;;;;;;4.85;2.15;;;;;;;;;;5430877;26;20094;-62
2024/04/24 01:51:04;;;;;;;5.38;2.08;;;;;;;;;;5428560;26;20076;-61
2024/04/24 01:53:29;;;;;;;7.45;2.05;;;;;;;;;;5438978;26;19995;-61
2024/04/24 01:55:55;;;;;;;5.63;2.45;;;;;;;;;;5426180;26;20037;-61
2024/04/24 01:58:21;;;;;;;7.30;2.40;;;;;;;;;;5415176;26;19999;-61
2024/04/24 02:00:46;;;;;;;6.13;2.60;;;;;;;;;;5413838;26;20488;-61
2024/04/24 02:03:12;;;;;;;5.80;2.40;;;;;;;;;;5430705;26;19999;-60
2024/04/24 02:05:37;;;;;;;6.80;2.50;;;;;;;;;;5430814;26;20066;-61
2024/04/24 02:08:03;;;;;;;5.82;2.20;;;;;;;;;;5445813;26;20001;-62
2024/04/24 02:10:29;;;;;;;5.93;2.50;;;;;;;;;;5414741;26;20000;-60
2024/04/24 02:12:54;;;;;;;6.30;2.35;;;;;;;;;;5423151;26;20007;-61
2024/04/24 02:15:20;;;;;;;6.95;2.40;;;;;;;;;;5444875;26;20048;-63
2024/04/24 02:17:45;;;;;;;7.53;2.47;;;;;;;;;;5435331;26;19999;-63
2024/04/24 02:20:11;;;;;;;6.68;2.40;;;;;;;;;;5452278;26;19999;-61
2024/04/24 02:22:38;;;;;;;5.97;2.35;;;;;;;;;;5426488;26;20091;-61
2024/04/24 02:27:48;;;;;;;5.50;2.40;;;;;;;;;;5446723;26;20014;-61
2024/04/24 02:30:13;;;;;;;6.15;2.50;;;;;;;;;;5453522;26;20007;-64
2024/04/24 02:32:39;;;;;;;6.45;2.33;;;;;;;;;;5447723;26;20067;-61
2024/04/24 02:35:04;;;;;;;6.13;2.53;;;;;;;;;;5429574;26;20005;-61
2024/04/24 02:37:30;;;;;;;5.28;2.65;;;;;;;;;;5420382;26;20003;-62
2024/04/24 02:39:56;;;;;;;6.70;2.30;;;;;;;;;;5451440;26;20009;-61
2024/04/24 02:42:21;;;;;;;5.47;2.45;;;;;;;;;;5450971;26;20030;-61
2024/04/24 02:44:47;;;;;;;5.90;2.35;;;;;;;;;;5448435;26;20067;-61
2024/04/24 02:47:12;;;;;;;5.65;2.65;;;;;;;;;;5446261;26;20278;-60
2024/04/24 02:49:38;;;;;;;5.80;2.60;;;;;;;;;;5423191;26;20011;-63
2024/04/24 02:52:03;;;;;;;5.63;2.55;;;;;;;;;;5417236;26;20000;-61
2024/04/24 02:54:29;;;;;;;6.07;2.50;;;;;;;;;;5417120;26;20000;-59
2024/04/24 02:56:54;;;;;;;7.15;3.13;;;;;;;;;;5417394;26;20064;-61
2024/04/24 02:59:20;;;;;;;7.95;2.95;;;;;;;;;;5448553;26;19999;-61
2024/04/24 03:01:45;;;;;;;6.85;3.08;;;;;;;;;;5438764;26;19998;-61
2024/04/24 03:04:11;;;;;;;6.68;3.20;;;;;;;;;;5446396;26;20063;-62
2024/04/24 03:06:43;;;;;;;8.40;3.35;;;;;;;;;;5417664;26;20003;-61
2024/04/24 03:09:08;;;;;;;6.82;2.97;;;;;;;;;;5416534;26;20400;-63
2024/04/24 03:11:34;;;;;;;8.48;3.53;;;;;;;;;;5416978;26;20007;-62
2024/04/24 03:13:59;;;;;;;6.18;3.13;;;;;;;;;;5423645;26;19995;-61
2024/04/24 03:16:32;;;;;;;5.72;2.80;;;;;;;;;;5430417;26;20003;-60
2024/04/24 03:18:57;;;;;;;5.88;3.00;;;;;;;;;;5447420;26;20031;-61
2024/04/24 03:21:23;;;;;;;8.07;2.75;;;;;;;;;;5452591;26;19994;-62
2024/04/24 03:23:48;;;;;;;6.07;2.80;;;;;;;;;;5447574;26;20527;-61
2024/04/24 03:26:14;;;;;;;6.85;2.90;;;;;;;;;;5448834;26;19995;-62
2024/04/24 03:28:39;;;;;;;7.20;3.10;;;;;;;;;;5452596;26;20007;-61
2024/04/24 03:31:05;;;;;;;7.53;3.30;;;;;;;;;;5439566;26;20056;-60
2024/04/24 03:33:30;;;;;;;5.57;2.65;;;;;;;;;;5457712;26;20002;-62
2024/04/24 03:35:56;;;;;;;6.43;3.20;;;;;;;;;;5490955;26;20008;-61
2024/04/24 03:38:21;;;;;;;7.90;2.90;;;;;;;;;;5492446;26;20006;-62
2024/04/24 03:40:47;;;;;;;7.90;3.22;;;;;;;;;;5492919;26;19997;-61
2024/04/24 03:43:14;;;;;;;7.85;3.05;;;;;;;;;;5473239;26;20047;-62
2024/04/24 03:45:39;;;;;;;6.45;3.03;;;;;;;;;;5426904;26;20009;-61
2024/04/24 03:48:05;;;;;;;7.20;3.35;;;;;;;;;;5431968;26;20015;-63
2024/04/24 03:50:31;;;;;;;7.03;3.10;;;;;;;;;;5458661;26;20014;-61
2024/04/24 03:52:56;;;;;;;8.35;3.58;;;;;;;;;;5455278;26;20003;-60
2024/04/24 03:55:22;;;;;;;7.10;2.90;;;;;;;;;;5454911;26;20420;-61
2024/04/24 03:57:47;;;;;;;8.57;3.17;;;;;;;;;;5457046;26;20427;-62
2024/04/24 04:00:13;;;;;;;6.55;3.17;;;;;;;;;;5455733;26;20013;-66
2024/04/24 04:02:38;;;;;;;7.35;3.20;;;;;;;;;;5441702;26;20023;-61
2024/04/24 04:05:04;;;;;;;7.70;2.97;;;;;;;;;;5460559;26;19995;-62
2024/04/24 04:07:30;;;;;;;6.65;3.10;;;;;;;;;;5438099;26;19999;-61
2024/04/24 04:09:55;;;;;;;7.80;3.05;;;;;;;;;;5452081;26;20495;-62
2024/04/24 04:12:21;;;;;;;8.38;3.42;;;;;;;;;;5425377;26;19998;-62
2024/04/24 04:14:46;;;;;;;6.78;3.15;;;;;;;;;;5451835;26;20044;-61
2024/04/24 04:17:12;;;;;;;6.85;3.25;;;;;;;;;;5433256;26;20071;-60
2024/04/24 04:19:37;;;;;;;7.20;3.20;;;;;;;;;;5439231;26;19995;-61
2024/04/24 04:22:03;;;;;;;9.00;3.00;;;;;;;;;;5430917;26;20007;-62
2024/04/24 04:24:28;;;;;;;6.00;2.80;;;;;;;;;;5432811;26;20072;-62
2024/04/24 04:26:54;;;;;;;8.00;3.20;;;;;;;;;;5417133;26;20010;-62
2024/04/24 04:29:19;;;;;;;6.22;3.25;;;;;;;;;;5415300;26;20438;-60
2024/04/24 04:31:45;;;;;;;6.47;2.78;;;;;;;;;;5431148;26;20496;-62
2024/04/24 04:34:10;;;;;;;6.93;3.13;;;;;;;;;;5434385;26;20398;-61
2024/04/24 04:36:36;;;;;;;6.03;2.92;;;;;;;;;;5422771;26;20444;-62
2024/04/24 04:39:03;;;;;;;6.40;2.90;;;;;;;;;;5432653;26;20415;-63
2024/04/24 04:41:29;;;;;;;7.38;3.08;;;;;;;;;;5445175;26;20058;-61
2024/04/24 04:43:56;;;;;;;5.30;2.72;;;;;;;;;;5446512;26;19991;-61
2024/04/24 04:46:22;;;;;;;6.60;2.95;;;;;;;;;;5434527;26;19999;-61
2024/04/24 04:48:48;;;;;;;7.30;3.10;;;;;;;;;;5424609;26;20014;-61
2024/04/24 04:51:13;;;;;;;6.35;2.90;;;;;;;;;;5429672;26;20417;-60
2024/04/24 04:53:39;;;;;;;8.65;2.92;;;;;;;;;;5416974;26;20416;-61
2024/04/24 04:56:04;;;;;;;7.38;3.10;;;;;;;;;;5441910;26;20015;-61
2024/04/24 04:58:30;;;;;;;6.20;2.78;;;;;;;;;;5446253;26;20466;-64
2024/04/24 05:00:55;;;;;;;6.28;3.10;;;;;;;;;;5440742;26;20068;-61
2024/04/24 05:03:21;;;;;;;7.95;3.00;;;;;;;;;;5421142;26;19996;-61
2024/04/24 05:05:46;;;;;;;8.50;3.40;;;;;;;;;;5440580;26;19991;-61
2024/04/24 05:08:12;;;;;;;8.75;3.15;;;;;;;;;;5428657;26;20455;-62
2024/04/24 05:10:37;;;;;;;8.50;3.45;;;;;;;;;;5425448;26;20638;-64
2024/04/24 05:13:03;;;;;;;7.20;3.05;;;;;;;;;;5432036;26;20397;-62
2024/04/24 05:15:29;;;;;;;11.60;3.92;;;;;;;;;;5443042;26;20346;-62
2024/04/24 05:17:54;;;;;;;7.82;3.20;;;;;;;;;;5439004;26;20451;-60
2024/04/24 05:20:20;;;;;;;7.25;3.28;;;;;;;;;;5431845;26;20696;-61
2024/04/24 05:22:50;;;;;;;8.05;3.20;;;;;;;;;;5413408;26;20519;-62
2024/04/24 05:25:16;;;;;;;8.40;3.25;;;;;;;;;;5439641;26;20021;-61
2024/04/24 05:30:27;;;;;;;7.07;3.33;;;;;;;;;;5450362;26;20075;-61
2024/04/24 05:32:52;;;;;;;8.02;3.20;;;;;;;;;;5450263;26;20002;-62
2024/04/24 05:35:18;;;;;;;7.68;3.08;;;;;;;;;;5444180;26;20076;-62
2024/04/24 05:37:43;;;;;;;10.70;3.47;;;;;;;;;;5445098;26;19999;-62
2024/04/24 05:40:09;;;;;;;7.00;3.17;;;;;;;;;;5434074;26;20007;-62
2024/04/24 05:42:34;;;;;;;7.85;3.30;;;;;;;;;;5450959;26;20074;-61
2024/04/24 05:45:00;;;;;;;9.23;3.33;;;;;;;;;;5437104;26;20003;-61
2024/04/24 05:47:25;;;;;;;6.22;2.97;;;;;;;;;;5434165;26;20003;-61
2024/04/24 05:49:53;;;;;;;8.52;3.00;;;;;;;;;;5431350;26;20068;-61
2024/04/24 05:52:19;;;;;;;7.68;3.30;;;;;;;;;;5447708;26;20417;-60
2024/04/24 05:54:44;;;;;;;7.78;3.03;;;;;;;;;;5423991;26;20010;-62
2024/04/24 05:57:10;;;;;;;6.68;2.80;;;;;;;;;;5431787;26;20011;-61
2024/04/24 05:59:36;;;;;;;6.50;2.90;;;;;;;;;;5437681;26;20075;-63
2024/04/24 06:02:01;;;;;;;6.50;2.83;;;;;;;;;;5425658;26;20003;-62
2024/04/24 06:04:27;;;;;;;8.13;2.88;;;;;;;;;;5438730;26;20000;-61
2024/04/24 06:06:52;;;;;;;7.45;2.80;;;;;;;;;;5439469;26;20025;-60
2024/04/24 06:09:18;;;;;;;5.95;2.70;;;;;;;;;;5439925;26;20074;-62
2024/04/24 06:11:43;;;;;;;5.95;2.88;;;;;;;;;;5423139;26;19999;-63
2024/04/24 06:14:09;;;;;;;7.13;3.05;;;;;;;;;;5424799;26;20010;-62
2024/04/24 06:16:35;;;;;;;6.72;2.78;;;;;;;;;;5420555;26;20058;-61
2024/04/24 06:19:00;;;;;;;6.88;2.97;;;;;;;;;;5425236;26;20000;-63
2024/04/24 06:21:26;;;;;;;6.57;3.10;;;;;;;;;;5435365;26;20007;-61
2024/04/24 06:23:51;;;;;;;6.90;3.00;;;;;;;;;;5447886;26;20163;-62
2024/04/24 06:26:17;;;;;;;7.65;2.78;;;;;;;;;;5450203;26;19995;-61
2024/04/24 06:28:42;;;;;;;9.02;3.20;;;;;;;;;;5445370;26;20353;-61
2024/04/24 06:31:08;;;;;;;8.90;3.15;;;;;;;;;;5446143;26;20007;-63
2024/04/24 06:33:34;;;;;;;7.38;3.20;;;;;;;;;;5426015;26;20003;-61
2024/04/24 06:36:02;;;;;;;6.68;3.05;;;;;;;;;;5443124;26;20027;-62
2024/04/24 06:38:28;;;;;;;6.55;2.83;;;;;;;;;;5437900;26;20003;-61
2024/04/24 06:40:54;;;;;;;6.50;2.70;;;;;;;;;;5445332;26;20384;-62
2024/04/24 06:43:20;;;;;;;6.45;2.85;;;;;;;;;;5446186;26;20593;-61
2024/04/24 06:45:45;;;;;;;5.75;2.60;;;;;;;;;;5429774;26;20072;-61
2024/04/24 06:48:11;;;;;;;6.43;3.13;;;;;;;;;;5457275;26;20002;-61
2024/04/24 06:50:37;;;;;;;7.78;3.08;;;;;;;;;;5456553;26;20005;-61
2024/04/24 06:53:02;;;;;;;7.53;3.20;;;;;;;;;;5440812;26;20175;-63
2024/04/24 06:55:28;;;;;;;7.28;2.83;;;;;;;;;;5454998;26;19995;-61
2024/04/24 06:57:53;;;;;;;6.20;2.70;;;;;;;;;;5450520;26;20007;-61
2024/04/24 07:00:19;;;;;;;6.40;3.28;;;;;;;;;;5449636;26;20074;-62
2024/04/24 07:02:44;;;;;;;8.40;3.05;;;;;;;;;;5448428;26;20003;-62
2024/04/24 07:05:10;;;;;;;5.65;2.88;;;;;;;;;;5451083;26;20011;-61
2024/04/24 07:07:35;;;;;;;7.78;2.75;;;;;;;;;;5448626;26;20013;-61
2024/04/24 07:10:01;;;;;;;7.65;3.00;;;;;;;;;;5432688;26;20015;-61
2024/04/24 07:12:27;;;;;;;7.72;2.88;;;;;;;;;;5444351;26;20007;-63
2024/04/24 07:14:52;;;;;;;6.03;2.95;;;;;;;;;;5452465;26;20003;-60
2024/04/24 07:17:18;;;;;;;6.90;3.00;;;;;;;;;;5488396;26;20073;-61
2024/04/24 07:19:43;;;;;;;6.25;2.85;;;;;;;;;;5487586;26;20000;-61
2024/04/24 07:22:09;;;;;;;5.85;2.58;;;;;;;;;;5471761;26;20002;-61
2024/04/24 07:24:34;;;;;;;6.43;3.13;;;;;;;;;;5437005;26;20013;-61
2024/04/24 07:27:00;;;;;;;5.45;2.65;;;;;;;;;;5446165;26;20424;-59
2024/04/24 07:29:26;;;;;;;6.90;3.22;;;;;;;;;;5451738;26;20574;-61
2024/04/24 07:31:51;;;;;;;6.53;2.90;;;;;;;;;;5451912;26;20003;-62
2024/04/24 07:34:17;;;;;;;6.65;2.80;;;;;;;;;;5416079;26;20076;-63
2024/04/24 07:36:42;;;;;;;6.28;2.83;;;;;;;;;;5415048;26;19995;-61
2024/04/24 07:39:08;;;;;;;6.90;3.03;;;;;;;;;;5433001;26;20098;-62
2024/04/24 07:41:33;;;;;;;7.72;3.28;;;;;;;;;;5441806;26;20134;-61
2024/04/24 07:43:59;;;;;;;6.18;2.97;;;;;;;;;;5451547;26;20002;-64
2024/04/24 07:46:25;;;;;;;8.02;2.83;;;;;;;;;;5450960;26;20010;-61
2024/04/24 07:48:50;;;;;;;8.15;2.80;;;;;;;;;;5449480;26;20342;-61
2024/04/24 07:51:16;;;;;;;7.28;2.65;;;;;;;;;;5431299;26;20006;-61
2024/04/24 07:53:41;;;;;;;7.35;2.80;;;;;;;;;;5449505;26;20058;-62
2024/04/24 07:56:07;;;;;;;8.23;2.80;;;;;;;;;;5448815;26;19999;-61
2024/04/24 07:58:33;;;;;;;7.05;2.50;;;;;;;;;;5452654;26;20007;-62
2024/04/24 08:01:00;;;;;;;5.68;2.40;;;;;;;;;;5449035;26;20372;-61
2024/04/24 08:03:25;;;;;;;6.03;2.80;;;;;;;;;;5451343;26;20044;-61
2024/04/24 08:05:51;;;;;;;6.53;2.30;;;;;;;;;;5450935;26;19990;-62
2024/04/24 08:08:16;;;;;;;6.18;2.65;;;;;;;;;;5444821;26;20015;-62
2024/04/24 08:10:42;;;;;;;6.47;2.72;;;;;;;;;;5441560;26;20062;-63
2024/04/24 08:13:07;;;;;;;10.48;3.17;;;;;;;;;;5451238;26;20010;-61
2024/04/24 08:15:33;;;;;;;6.53;2.42;;;;;;;;;;5433297;26;20067;-62
2024/04/24 08:17:58;;;;;;;5.97;2.63;;;;;;;;;;5450617;26;20074;-61
2024/04/24 08:20:24;;;;;;;7.47;2.67;;;;;;;;;;5444261;26;20007;-63
2024/04/24 08:22:49;;;;;;;6.82;2.42;;;;;;;;;;5439161;26;20396;-62
2024/04/24 08:25:15;;;;;;;8.82;3.28;;;;;;;;;;5451070;26;20002;-62
2024/04/24 08:27:42;;;;;;;7.00;2.80;;;;;;;;;;5451369;26;19999;-63
2024/04/24 08:30:07;;;;;;;8.00;3.22;;;;;;;;;;5445016;26;20288;-62
2024/04/24 08:32:33;;;;;;;8.52;3.50;;;;;;;;;;5455241;26;20030;-61
2024/04/24 08:34:58;;;;;;;8.43;3.33;;;;;;;;;;5468395;26;20002;-63
2024/04/24 08:37:24;;;;;;;7.80;3.30;;;;;;;;;;5472360;26;20036;-64
2024/04/24 08:39:49;;;;;;;7.05;2.90;;;;;;;;;;5472741;26;19995;-62
2024/04/24 08:42:15;;;;;;;6.30;2.90;;;;;;;;;;5469893;26;20002;-60
2024/04/24 08:44:41;;;;;;;6.03;3.22;;;;;;;;;;5441624;26;20071;-63
2024/04/24 08:47:07;;;;;;;6.13;3.10;;;;;;;;;;5451015;26;20010;-61
2024/04/24 08:49:34;;;;;;;6.03;2.97;;;;;;;;;;5440158;26;19994;-63
2024/04/24 08:52:00;;;;;;;6.20;2.80;;;;;;;;;;5449040;26;20011;-61
2024/04/24 08:54:28;;;;;;;6.22;2.83;;;;;;;;;;5451119;26;20002;-63
2024/04/24 08:56:57;;;;;;;7.38;3.35;;;;;;;;;;5451069;26;19999;-62
2024/04/24 08:59:24;;;;;;;8.65;3.40;;;;;;;;;;5441538;26;20010;-62
2024/04/24 09:01:56;;;;;;;5.63;3.03;;;;;;;;;;5435300;26;20010;-63
2024/04/24 09:04:22;;;;;;;7.35;3.70;;;;;;;;;;5429903;26;20014;-64
2024/04/24 09:06:48;;;;;;;6.00;2.80;;;;;;;;;;5439473;26;20014;-62
2024/04/24 09:09:14;;;;;;;8.77;2.90;;;;;;;;;;5450837;26;20068;-63
2024/04/24 09:11:40;;;;;;;6.53;2.72;;;;;;;;;;5450321;26;19991;-61
2024/04/24 09:14:06;;;;;;;5.55;2.85;;;;;;;;;;5448232;26;20015;-62
2024/04/24 09:16:34;;;;;;;5.82;2.58;;;;;;;;;;5447657;26;20403;-63
2024/04/24 09:19:00;;;;;;;6.25;2.80;;;;;;;;;;5450181;26;20392;-61
2024/04/24 09:21:27;;;;;;;6.57;2.88;;;;;;;;;;5439647;26;20459;-63
2024/04/24 09:23:53;;;;;;;6.82;2.80;;;;;;;;;;5436011;26;20473;-62
2024/04/24 09:26:18;;;;;;;6.05;3.33;;;;;;;;;;5434994;26;20381;-62
2024/04/24 09:28:45;;;;;;;5.72;2.67;;;;;;;;;;5444908;26;20403;-62
2024/04/24 09:31:11;;;;;;;5.60;2.40;;;;;;;;;;5449137;26;20071;-62
2024/04/24 09:33:36;;;;;;;7.50;3.30;;;;;;;;;;5450260;26;20003;-61
2024/04/24 09:36:02;;;;;;;5.88;2.72;;;;;;;;;;5452345;26;20063;-63
2024/04/24 09:38:30;;;;;;;5.82;2.92;;;;;;;;;;5448282;26;19999;-62
2024/04/24 09:40:56;;;;;;;7.07;3.03;;;;;;;;;;5441976;26;20497;-62
2024/04/24 09:43:22;;;;;;;5.43;2.25;;;;;;;;;;5436684;26;19999;-62
2024/04/24 09:45:47;;;;;;;5.53;2.65;;;;;;;;;;5449885;26;20003;-62
2024/04/24 09:48:16;;;;;;;6.13;2.67;;;;;;;;;;5449746;26;20405;-61
2024/04/24 09:50:43;;;;;;;7.35;2.30;;;;;;;;;;5449481;26;20442;-62
2024/04/24 09:53:08;;;;;;;5.53;2.40;;;;;;;;;;5449838;26;20453;-62
2024/04/24 09:55:38;;;;;;;5.78;2.35;;;;;;;;;;5446017;26;20015;-63
2024/04/24 09:58:03;;;;;;;5.47;2.40;;;;;;;;;;5440706;26;19998;-62
2024/04/24 10:00:31;;;;;;;7.25;2.60;;;;;;;;;;5446483;26;20075;-63
2024/04/24 10:02:59;;;;;;;5.25;2.63;;;;;;;;;;5447204;26;20009;-61
2024/04/24 10:05:26;;;;;;;5.13;2.70;;;;;;;;;;5449002;26;19999;-61
2024/04/24 10:07:57;;;;;;;8.48;3.22;;;;;;;;;;5448975;26;20058;-62
2024/04/24 10:10:28;;;;;;;5.85;2.55;;;;;;;;;;5448917;26;19995;-61
2024/04/24 10:12:55;;;;;;;6.00;2.90;;;;;;;;;;5438338;26;20044;-61
2024/04/24 10:15:22;;;;;;;6.20;2.58;;;;;;;;;;5428134;26;19995;-65
2024/04/24 10:17:49;;;;;;;6.22;2.58;;;;;;;;;;5446226;26;19995;-63
2024/04/24 10:20:15;;;;;;;5.07;2.45;;;;;;;;;;5447196;26;20465;-62
2024/04/24 10:22:41;;;;;;;5.22;2.45;;;;;;;;;;5437580;26;20015;-62
2024/04/24 10:25:07;;;;;;;5.60;2.38;;;;;;;;;;5413341;26;20459;-62
2024/04/24 10:27:33;;;;;;;5.55;2.30;;;;;;;;;;5424037;26;19995;-61
2024/04/24 10:29:58;;;;;;;5.80;2.70;;;;;;;;;;5450528;26;20002;-62
2024/04/24 10:32:28;;;;;;;7.07;2.80;;;;;;;;;;5442972;26;20019;-62
2024/04/24 10:34:54;;;;;;;7.05;2.70;;;;;;;;;;5456694;26;20034;-63
2024/04/24 10:37:20;;;;;;;6.22;2.67;;;;;;;;;;5452162;26;20009;-63
2024/04/24 10:39:46;;;;;;;5.75;2.38;;;;;;;;;;5450479;26;19991;-62
2024/04/24 10:42:12;;;;;;;9.43;2.80;;;;;;;;;;5452376;26;19999;-62
2024/04/24 10:44:37;;;;;;;5.05;2.53;;;;;;;;;;5450382;26;20017;-62
2024/04/24 10:47:03;;;;;;;5.70;2.10;;;;;;;;;;5448665;26;20042;-61
2024/04/24 10:49:29;;;;;;;6.78;2.67;;;;;;;;;;5452999;26;19995;-61
2024/04/24 10:51:54;;;;;;;6.68;2.83;;;;;;;;;;5452505;26;19995;-61
2024/04/24 10:54:27;;;;;;;5.38;2.78;;;;;;;;;;5452710;26;20063;-63
2024/04/24 10:56:55;;;;;;;8.38;3.15;;;;;;;;;;5452357;26;20034;-63
2024/04/24 10:59:35;;;;;;;9.15;3.20;;;;;;;;;;5450923;26;20009;-65
2024/04/24 11:02:08;;;;;;;7.72;3.97;;;;;;;;;;5456435;26;20084;-62
2024/04/24 11:04:33;;;;;;;7.57;3.70;;;;;;;;;;5457648;26;20353;-60
2024/04/24 11:06:59;;;;;;;6.05;3.15;;;;;;;;;;5454885;26;20002;-62
2024/04/24 11:09:24;;;;;;;6.95;3.22;;;;;;;;;;5445614;26;20531;-61
2024/04/24 11:11:53;;;;;;;8.75;3.95;;;;;;;;;;5445807;26;20423;-62
2024/04/24 11:14:18;;;;;;;8.48;4.95;;;;;;;;;;5446750;26;19991;-62
2024/04/24 11:16:54;;;;;;;8.55;4.80;;;;;;;;;;5441699;26;20443;-61
2024/04/24 11:19:20;;;;;;;7.95;4.88;;;;;;;;;;5451117;26;19995;-61
2024/04/24 11:21:45;;;;;;;8.35;4.95;;;;;;;;;;5452252;26;20312;-60
2024/04/24 11:24:11;;;;;;;8.63;4.25;;;;;;;;;;5437654;26;20007;-62
2024/04/24 11:26:37;;;;;;;7.32;4.57;;;;;;;;;;5452488;26;20039;-63
2024/04/24 11:29:03;;;;;;;9.25;4.47;;;;;;;;;;5451054;26;20071;-63
2024/04/24 11:31:40;;;;;;;7.10;4.20;;;;;;;;;;5453537;26;20014;-61
2024/04/24 11:34:07;;;;;;;8.13;4.18;;;;;;;;;;5427945;26;20055;-62
2024/04/24 11:36:32;;;;;;;5.80;3.20;;;;;;;;;;5417804;26;19995;-60
2024/04/24 11:38:59;;;;;;;7.60;4.43;;;;;;;;;;5416282;26;20014;-62
2024/04/24 11:41:25;;;;;;;6.93;4.00;;;;;;;;;;5433986;26;19998;-61
2024/04/24 11:43:50;;;;;;;8.98;3.83;;;;;;;;;;5447347;26;20013;-63
2024/04/24 11:46:18;;;;;;;8.75;3.55;;;;;;;;;;5450250;26;20002;-62
2024/04/24 11:48:43;;;;;;;6.80;4.13;;;;;;;;;;5452630;26;20013;-61
2024/04/24 11:51:09;;;;;;;7.00;3.97;;;;;;;;;;5452589;26;19991;-63
2024/04/24 11:53:35;;;;;;;6.80;3.67;;;;;;;;;;5452882;26;20007;-61
2024/04/24 11:56:00;;;;;;;7.18;4.20;;;;;;;;;;5442106;26;20677;-61
2024/04/24 11:58:27;;;;;;;10.15;4.13;;;;;;;;;;5450107;26;20335;-61
2024/04/24 12:00:53;;;;;;;13.45;3.95;;;;;;;;;;5434282;26;19996;-62
2024/04/24 12:03:19;;;;;;;8.55;4.00;;;;;;;;;;5443871;26;20523;-62
2024/04/24 12:05:45;;;;;;;7.93;4.05;;;;;;;;;;5440313;26;20040;-63
2024/04/24 12:08:11;;;;;;;7.93;4.28;;;;;;;;;;5449549;26;20003;-62
2024/04/24 12:10:37;;;;;;;7.82;4.20;;;;;;;;;;5449229;26;20363;-63
2024/04/24 12:13:03;;;;;;;7.18;4.07;;;;;;;;;;5413762;26;20455;-63
2024/04/24 12:15:29;;;;;;;9.52;4.18;;;;;;;;;;5446591;26;20058;-64
2024/04/24 12:17:56;;;;;;;6.60;4.00;;;;;;;;;;5449427;26;20010;-62
2024/04/24 12:20:21;;;;;;;6.20;3.83;;;;;;;;;;5451044;26;20264;-61
2024/04/24 12:22:47;;;;;;;7.72;4.60;;;;;;;;;;5451075;26;19999;-61
2024/04/24 12:25:12;;;;;;;7.80;4.45;;;;;;;;;;5447206;26;20014;-61
2024/04/24 12:27:38;;;;;;;6.68;4.05;;;;;;;;;;5437068;26;20078;-62
2024/04/24 12:30:04;;;;;;;6.70;4.07;;;;;;;;;;5434708;26;20071;-63
2024/04/24 12:32:30;;;;;;;8.23;4.63;;;;;;;;;;5446163;26;20010;-63
2024/04/24 12:34:55;;;;;;;6.85;4.03;;;;;;;;;;5458525;26;20006;-63
2024/04/24 12:37:21;;;;;;;6.47;3.90;;;;;;;;;;5444672;26;20093;-61
2024/04/24 12:39:47;;;;;;;6.65;4.20;;;;;;;;;;5461459;26;20006;-61
2024/04/24 12:42:13;;;;;;;6.97;4.03;;;;;;;;;;5453178;26;20068;-63
2024/04/24 12:44:40;;;;;;;7.35;4.60;;;;;;;;;;5438590;26;20010;-63
2024/04/24 12:47:05;;;;;;;7.47;3.92;;;;;;;;;;5446796;26;20010;-60
2024/04/24 12:49:32;;;;;;;6.40;3.25;;;;;;;;;;5440102;26;20328;-62
2024/04/24 12:51:58;;;;;;;5.70;2.75;;;;;;;;;;5456020;26;19995;-62
2024/04/24 12:54:23;;;;;;;6.13;3.25;;;;;;;;;;5469056;26;20055;-64
2024/04/24 12:56:49;;;;;;;6.30;3.38;;;;;;;;;;5471806;26;19998;-64
2024/04/24 12:59:14;;;;;;;6.55;4.03;;;;;;;;;;5466641;26;20074;-66
2024/04/24 13:01:40;;;;;;;6.95;3.92;;;;;;;;;;5447128;26;20025;-61
2024/04/24 13:04:05;;;;;;;6.75;4.00;;;;;;;;;;5450498;26;19999;-63
2024/04/24 13:06:33;;;;;;;9.02;4.30;;;;;;;;;;5450352;26;20067;-64
2024/04/24 13:08:59;;;;;;;10.10;5.68;;;;;;;;;;5450954;26;19998;-64
2024/04/24 13:11:25;;;;;;;8.50;5.43;;;;;;;;;;5437520;26;20026;-63
2024/04/24 13:13:50;;;;;;;10.77;6.68;;;;;;;;;;5441032;26;19999;-61
2024/04/24 13:16:16;;;;;;;12.38;7.13;;;;;;;;;;5433974;26;20010;-64
2024/04/24 13:18:42;;;;;;;13.77;7.13;;;;;;;;;;5450018;26;19999;-61
2024/04/24 13:21:08;;;;;;;12.55;7.93;;;;;;;;;;5450622;26;20003;-60
2024/04/24 13:23:33;;;;;;;11.85;6.60;;;;;;;;;;5445876;26;19995;-60
2024/04/24 13:25:59;;;;;;;15.63;8.25;;;;;;;;;;5440285;26;20054;-61
2024/04/24 13:28:24;;;;;;;12.75;8.35;;;;;;;;;;5420097;26;20396;-61
2024/04/24 13:30:50;;;;;;;11.63;8.07;;;;;;;;;;5434030;26;20306;-61
2024/04/24 13:33:16;;;;;;;11.05;7.55;;;;;;;;;;5431380;26;20041;-62
2024/04/24 13:35:42;;;;;;;12.68;8.25;;;;;;;;;;5467285;26;20007;-62
2024/04/24 13:38:07;;;;;;;12.63;7.85;;;;;;;;;;5434971;26;20003;-61
2024/04/24 13:40:33;;;;;;;11.27;7.10;;;;;;;;;;5429989;26;20511;-62
2024/04/24 13:42:58;;;;;;;10.88;6.57;;;;;;;;;;5421971;26;20053;-62
2024/04/24 13:45:24;;;;;;;14.13;7.75;;;;;;;;;;5420436;26;20044;-61
2024/04/24 13:47:50;;;;;;;11.27;7.32;;;;;;;;;;5449761;26;19999;-62
2024/04/24 13:50:16;;;;;;;11.15;6.80;;;;;;;;;;5449367;26;20068;-61
2024/04/24 13:52:41;;;;;;;10.95;7.60;;;;;;;;;;5449458;26;20007;-62
2024/04/24 13:55:07;;;;;;;12.10;7.40;;;;;;;;;;5446985;26;19998;-62
2024/04/24 13:57:33;;;;;;;11.10;7.40;;;;;;;;;;5433589;26;20008;-61
2024/04/24 13:59:58;;;;;;;12.77;7.07;;;;;;;;;;5423897;26;20007;-62
2024/04/24 14:02:24;;;;;;;10.48;7.03;;;;;;;;;;5432622;26;20068;-62
2024/04/24 14:04:50;;;;;;;11.00;7.03;;;;;;;;;;5428347;26;19994;-62
2024/04/24 14:07:15;;;;;;;12.13;7.50;;;;;;;;;;5434842;26;19999;-63
2024/04/24 14:09:41;;;;;;;11.35;6.88;;;;;;;;;;5443662;26;19999;-62
2024/04/24 14:12:08;;;;;;;12.15;7.25;;;;;;;;;;5437815;26;20011;-62
2024/04/24 14:14:34;;;;;;;14.02;7.40;;;;;;;;;;5434123;26;20050;-62
2024/04/24 14:16:59;;;;;;;13.30;6.93;;;;;;;;;;5440678;26;20063;-61
2024/04/24 14:19:25;;;;;;;11.52;7.57;;;;;;;;;;5452859;26;20003;-63
2024/04/24 14:21:51;;;;;;;12.93;7.60;;;;;;;;;;5455230;26;19999;-61
2024/04/24 14:24:16;;;;;;;10.82;6.70;;;;;;;;;;5451702;26;20063;-62
2024/04/24 14:26:42;;;;;;;10.73;7.10;;;;;;;;;;5443626;26;20019;-62
2024/04/24 14:29:12;;;;;;;11.15;6.85;;;;;;;;;;5450199;26;20002;-62
2024/04/24 14:31:40;;;;;;;13.55;7.50;;;;;;;;;;5433286;26;19999;-65
2024/04/24 14:34:05;;;;;;;10.70;7.20;;;;;;;;;;5438827;26;19999;-60
2024/04/24 14:36:31;;;;;;;12.23;7.38;;;;;;;;;;5445996;26;20068;-61
2024/04/24 14:38:56;;;;;;;14.23;9.35;;;;;;;;;;5430161;26;20083;-60